Byron, IL

12:55 AM CDT on August 27, 2016 (GMT -0500)
Highland Elementary | | Change Station

Elev 755 ft 42.10 °N, 89.18 °W | Updated 48 seconds ago

Mostly Cloudy
Mostly Cloudy
66.7 °F
Feels Like 66.7 °F
N
1.0
Wind Variable Wind from SE
Gusts 3.0 mph

Today
High -- | Low -- °F
--% Chance of Precip.
Yesterday
High -- | Low -- °F
Precip. -- in
Pressure 30.10 in
Visibility 10.0 miles
Clouds Few 5500 ft
Scattered Clouds 7000 ft
Mostly Cloudy 10000 ft
Mostly Cloudy 22000 ft
Dew Point 63 °F
Humidity 89%
Rainfall 0.00 in
Snow Depth Not available.
6:17 AM 7:38 PM
Waning Crescent, 27% visible
METAR KRFD 270454Z 10007KT 10SM FEW055 SCT070 BKN100 BKN220 20/16 A3011 RMK AO2 RAB20E38 SLP192 FRQ LTGIC DSNT S CB DSNT S P0001 T02000161
Pressure 30.10 in
Visibility 10.0 miles
Clouds Few 5500 ft
Scattered Clouds 7000 ft
Mostly Cloudy 10000 ft
Mostly Cloudy 22000 ft
Dew Point 63 °F
Humidity 89%
Rainfall 0.00 in
Snow Depth Not available.
6:17 AM 7:38 PM
Waning Crescent, 27% visible
METAR KRFD 270454Z 10007KT 10SM FEW055 SCT070 BKN100 BKN220 20/16 A3011 RMK AO2 RAB20E38 SLP192 FRQ LTGIC DSNT S CB DSNT S P0001 T02000161

10-Day Weather Forecast

Almanac

Astronomy

Aug. 27, 2016 Rise Set
Actual Time
Civil Twilight
Nautical Twilight
Astronomical Twilight
Moon
Length of Visible Light
Length of Day
Tomorrow will be .
, % of the Moon is Illuminated

Today's Extremes

State Highs State Lows

Community

WunderPhotos

Upload Photos

1,935,303 photos uploaded!

WunderBlog® & News

Nearby

Air Quality

  Air Quality AQ Index Pollutant
Not available.

Snow Depth

Station Depth Elevation

Earthquake Activity

City Distance Mag. Time & Date
Minimum magnitude displayed is 2.5.

Coastal Water Temperatures

Place Temperature

Stations

Nearby Weather Stations

Station Location Temp. Windchill Dew Point Humidity Wind Precip. Elev Updated Type
                   

Watches & Warnings

There are currently no watches in effect.